sensor_id;sensor_type;location;lat;lon;timestamp;pressure;altitude;pressure_sealevel;temperature;humidity
12624;BME280;6377;42.836;23.998;2024-03-23T09:27:28;95453.16;;;16.43;32.45
12624;BME280;6377;42.836;23.998;2024-03-23T09:29:55;95479.75;;;16.74;32.48
12624;BME280;6377;42.836;23.998;2024-03-23T09:32:21;95476.88;;;16.94;32.79
12624;BME280;6377;42.836;23.998;2024-03-23T09:34:47;95453.97;;;17.05;31.20
12624;BME280;6377;42.836;23.998;2024-03-23T09:37:13;95453.03;;;17.29;31.28
12624;BME280;6377;42.836;23.998;2024-03-23T09:39:40;95467.94;;;17.73;30.05
12624;BME280;6377;42.836;23.998;2024-03-23T09:42:07;95465.31;;;17.96;30.37
12624;BME280;6377;42.836;23.998;2024-03-23T09:44:36;95438.28;;;17.86;30.08
12624;BME280;6377;42.836;23.998;2024-03-23T09:47:02;95458.94;;;18.09;29.79
12624;BME280;6377;42.836;23.998;2024-03-23T09:49:30;95451.22;;;18.54;30.77
12624;BME280;6377;42.836;23.998;2024-03-23T09:51:59;95425.94;;;18.73;29.26
12624;BME280;6377;42.836;23.998;2024-03-23T09:54:26;95379.09;;;18.29;28.41
12624;BME280;6377;42.836;23.998;2024-03-23T09:56:51;95376.91;;;18.37;27.80
12624;BME280;6377;42.836;23.998;2024-03-23T09:59:18;95440.97;;;18.62;28.48
12624;BME280;6377;42.836;23.998;2024-03-23T10:01:45;95423.22;;;18.96;27.69
12624;BME280;6377;42.836;23.998;2024-03-23T10:04:35;95420.94;;;19.28;26.98
12624;BME280;6377;42.836;23.998;2024-03-23T10:07:10;95409.34;;;19.67;26.84
12624;BME280;6377;42.836;23.998;2024-03-23T10:09:37;95411.28;;;20.00;27.22
12624;BME280;6377;42.836;23.998;2024-03-23T10:12:09;95407.53;;;20.18;27.26
12624;BME280;6377;42.836;23.998;2024-03-23T10:14:36;95355.41;;;19.80;27.00
12624;BME280;6377;42.836;23.998;2024-03-23T10:17:16;95409.00;;;20.58;27.48
12624;BME280;6377;42.836;23.998;2024-03-23T10:19:44;95381.63;;;20.78;26.78
12624;BME280;6377;42.836;23.998;2024-03-23T10:22:13;95363.91;;;20.82;26.67
12624;BME280;6377;42.836;23.998;2024-03-23T10:24:41;95397.44;;;21.13;26.25
12624;BME280;6377;42.836;23.998;2024-03-23T10:27:06;95395.34;;;21.20;25.85
12624;BME280;6377;42.836;23.998;2024-03-23T10:29:33;95376.91;;;20.90;25.11
12624;BME280;6377;42.836;23.998;2024-03-23T10:32:09;95396.94;;;21.16;25.97
12624;BME280;6377;42.836;23.998;2024-03-23T10:34:40;95349.31;;;20.95;24.92
12624;BME280;6377;42.836;23.998;2024-03-23T10:37:06;95352.19;;;21.58;25.73
12624;BME280;6377;42.836;23.998;2024-03-23T10:39:35;95375.72;;;21.46;25.78
12624;BME280;6377;42.836;23.998;2024-03-23T10:42:02;95312.44;;;20.30;25.27
12624;BME280;6377;42.836;23.998;2024-03-23T10:44:29;95311.94;;;20.55;25.61
12624;BME280;6377;42.836;23.998;2024-03-23T10:46:57;95357.88;;;20.92;25.99
12624;BME280;6377;42.836;23.998;2024-03-23T10:49:26;95351.38;;;20.49;25.80
12624;BME280;6377;42.836;23.998;2024-03-23T10:51:57;95342.53;;;20.49;25.95
12624;BME280;6377;42.836;23.998;2024-03-23T10:54:24;95342.41;;;20.82;26.09
12624;BME280;6377;42.836;23.998;2024-03-23T10:56:53;95311.56;;;21.33;26.42
12624;BME280;6377;42.836;23.998;2024-03-23T10:59:22;95339.81;;;22.16;24.63
12624;BME280;6377;42.836;23.998;2024-03-23T11:01:55;95315.38;;;22.32;24.72
12624;BME280;6377;42.836;23.998;2024-03-23T11:04:32;95330.06;;;21.51;24.88
12624;BME280;6377;42.836;23.998;2024-03-23T11:07:00;95299.97;;;21.28;24.95
12624;BME280;6377;42.836;23.998;2024-03-23T11:09:40;95323.59;;;20.82;25.62
12624;BME280;6377;42.836;23.998;2024-03-23T11:12:27;95310.47;;;20.64;25.82
12624;BME280;6377;42.836;23.998;2024-03-23T11:14:57;95266.88;;;20.57;25.58
12624;BME280;6377;42.836;23.998;2024-03-23T11:17:24;95284.53;;;20.53;25.24
12624;BME280;6377;42.836;23.998;2024-03-23T11:19:56;95300.19;;;21.53;25.61
12624;BME280;6377;42.836;23.998;2024-03-23T11:22:45;95206.09;;;20.78;25.06
12624;BME280;6377;42.836;23.998;2024-03-23T11:25:14;95296.69;;;21.52;24.79
12624;BME280;6377;42.836;23.998;2024-03-23T11:27:40;95296.00;;;21.94;24.64
12624;BME280;6377;42.836;23.998;2024-03-23T11:30:14;95247.16;;;21.48;24.74
12624;BME280;6377;42.836;23.998;2024-03-23T11:32:41;95275.97;;;21.85;24.82
12624;BME280;6377;42.836;23.998;2024-03-23T11:35:09;95278.25;;;21.66;25.26
12624;BME280;6377;42.836;23.998;2024-03-23T11:37:38;95232.75;;;21.33;25.13
12624;BME280;6377;42.836;23.998;2024-03-23T11:40:19;95265.00;;;21.28;25.77
12624;BME280;6377;42.836;23.998;2024-03-23T11:42:45;95260.59;;;21.48;25.19
12624;BME280;6377;42.836;23.998;2024-03-23T11:45:13;95252.50;;;22.12;26.14
12624;BME280;6377;42.836;23.998;2024-03-23T11:47:39;95226.03;;;21.67;24.98
12624;BME280;6377;42.836;23.998;2024-03-23T11:50:07;95243.06;;;22.14;24.56
12624;BME280;6377;42.836;23.998;2024-03-23T11:52:33;95206.13;;;22.05;24.75
12624;BME280;6377;42.836;23.998;2024-03-23T11:55:04;95170.41;;;22.29;24.77
12624;BME280;6377;42.836;23.998;2024-03-23T11:57:31;95155.25;;;22.08;23.95
12624;BME280;6377;42.836;23.998;2024-03-23T11:59:58;95169.31;;;21.78;24.12
12624;BME280;6377;42.836;23.998;2024-03-23T12:02:24;95197.25;;;21.72;24.42
12624;BME280;6377;42.836;23.998;2024-03-23T12:04:51;95200.28;;;21.81;24.57
12624;BME280;6377;42.836;23.998;2024-03-23T12:07:19;95224.22;;;22.14;24.47
12624;BME280;6377;42.836;23.998;2024-03-23T12:09:47;95225.28;;;22.13;24.23
12624;BME280;6377;42.836;23.998;2024-03-23T12:12:32;95122.06;;;21.56;24.40
12624;BME280;6377;42.836;23.998;2024-03-23T12:15:03;95208.34;;;22.13;24.28
12624;BME280;6377;42.836;23.998;2024-03-23T12:17:29;95217.59;;;21.53;24.42
12624;BME280;6377;42.836;23.998;2024-03-23T12:19:56;95205.41;;;21.83;24.32
12624;BME280;6377;42.836;23.998;2024-03-23T12:22:26;95178.63;;;22.03;24.07
12624;BME280;6377;42.836;23.998;2024-03-23T12:24:55;95186.13;;;22.48;23.65
12624;BME280;6377;42.836;23.998;2024-03-23T12:27:20;95033.28;;;21.56;23.29
12624;BME280;6377;42.836;23.998;2024-03-23T12:29:51;95187.63;;;22.80;23.30
12624;BME280;6377;42.836;23.998;2024-03-23T12:32:17;95097.44;;;22.46;23.41
12624;BME280;6377;42.836;23.998;2024-03-23T12:34:44;95027.75;;;21.83;23.38
12624;BME280;6377;42.836;23.998;2024-03-23T12:37:12;95081.44;;;22.04;23.17
12624;BME280;6377;42.836;23.998;2024-03-23T12:39:40;95173.09;;;22.24;22.97
12624;BME280;6377;42.836;23.998;2024-03-23T12:42:06;95154.03;;;22.36;23.21
12624;BME280;6377;42.836;23.998;2024-03-23T12:44:33;95176.88;;;22.28;22.92
12624;BME280;6377;42.836;23.998;2024-03-23T12:47:00;95174.69;;;22.25;23.33
12624;BME280;6377;42.836;23.998;2024-03-23T12:49:27;95154.31;;;22.50;22.88
12624;BME280;6377;42.836;23.998;2024-03-23T12:51:54;95068.56;;;22.26;23.21
12624;BME280;6377;42.836;23.998;2024-03-23T12:54:21;95008.09;;;21.25;22.88
12624;BME280;6377;42.836;23.998;2024-03-23T12:56:47;95098.16;;;22.16;22.52
12624;BME280;6377;42.836;23.998;2024-03-23T12:59:14;95137.16;;;22.76;22.69
12624;BME280;6377;42.836;23.998;2024-03-23T13:02:11;95079.34;;;22.26;22.69
12624;BME280;6377;42.836;23.998;2024-03-23T13:04:40;95155.38;;;22.49;22.34
12624;BME280;6377;42.836;23.998;2024-03-23T13:07:06;95144.19;;;22.82;21.84
12624;BME280;6377;42.836;23.998;2024-03-23T13:09:33;95124.69;;;22.55;21.34
12624;BME280;6377;42.836;23.998;2024-03-23T13:11:59;95084.81;;;21.85;20.83
12624;BME280;6377;42.836;23.998;2024-03-23T13:14:28;95052.66;;;21.58;20.80
12624;BME280;6377;42.836;23.998;2024-03-23T13:16:57;95149.22;;;22.48;20.97
12624;BME280;6377;42.836;23.998;2024-03-23T13:19:28;95071.84;;;21.76;21.21
12624;BME280;6377;42.836;23.998;2024-03-23T13:21:56;95112.59;;;21.90;21.04
12624;BME280;6377;42.836;23.998;2024-03-23T13:24:23;95119.78;;;21.79;20.71
12624;BME280;6377;42.836;23.998;2024-03-23T13:26:50;95089.69;;;21.88;21.13
12624;BME280;6377;42.836;23.998;2024-03-23T13:29:21;95114.50;;;21.48;20.92
12624;BME280;6377;42.836;23.998;2024-03-23T13:31:51;95097.94;;;21.71;21.39
12624;BME280;6377;42.836;23.998;2024-03-23T13:34:19;95106.34;;;21.79;21.15
12624;BME280;6377;42.836;23.998;2024-03-23T13:36:47;95053.84;;;21.82;21.30
12624;BME280;6377;42.836;23.998;2024-03-23T13:39:14;95013.16;;;21.73;20.76
12624;BME280;6377;42.836;23.998;2024-03-23T13:41:43;95115.19;;;22.37;20.33
12624;BME280;6377;42.836;23.998;2024-03-23T13:44:12;95074.25;;;22.40;20.55
12624;BME280;6377;42.836;23.998;2024-03-23T13:46:39;95093.22;;;22.65;20.63
12624;BME280;6377;42.836;23.998;2024-03-23T13:49:06;95031.47;;;21.71;21.51
12624;BME280;6377;42.836;23.998;2024-03-23T13:51:32;95087.91;;;22.08;21.48
12624;BME280;6377;42.836;23.998;2024-03-23T13:54:01;95070.63;;;21.89;21.50
12624;BME280;6377;42.836;23.998;2024-03-23T13:56:27;94965.84;;;21.20;22.22
12624;BME280;6377;42.836;23.998;2024-03-23T13:58:55;95093.34;;;22.23;21.63
12624;BME280;6377;42.836;23.998;2024-03-23T14:01:21;95087.84;;;21.93;21.85
12624;BME280;6377;42.836;23.998;2024-03-23T14:06:51;95043.91;;;21.31;22.41
12624;BME280;6377;42.836;23.998;2024-03-23T14:09:18;94941.66;;;20.42;22.58
12624;BME280;6377;42.836;23.998;2024-03-23T14:14:46;95076.31;;;21.14;22.79
12624;BME280;6377;42.836;23.998;2024-03-23T14:17:13;94938.03;;;19.99;22.60
12624;BME280;6377;42.836;23.998;2024-03-23T14:19:41;95006.63;;;20.39;22.40
12624;BME280;6377;42.836;23.998;2024-03-23T14:22:09;95068.50;;;20.49;22.93
12624;BME280;6377;42.836;23.998;2024-03-23T14:24:37;95055.75;;;20.12;23.28
12624;BME280;6377;42.836;23.998;2024-03-23T14:27:04;95060.22;;;20.29;23.71
12624;BME280;6377;42.836;23.998;2024-03-23T14:29:32;94917.84;;;19.22;23.77
12624;BME280;6377;42.836;23.998;2024-03-23T14:31:59;95016.09;;;19.49;24.04
12624;BME280;6377;42.836;23.998;2024-03-23T14:34:26;95083.91;;;19.88;24.04
12624;BME280;6377;42.836;23.998;2024-03-23T14:36:53;95009.59;;;19.67;24.25
12624;BME280;6377;42.836;23.998;2024-03-23T14:39:22;94987.13;;;19.30;24.65
12624;BME280;6377;42.836;23.998;2024-03-23T14:41:51;95082.00;;;19.84;24.13
12624;BME280;6377;42.836;23.998;2024-03-23T14:44:17;95068.88;;;19.66;24.00
12624;BME280;6377;42.836;23.998;2024-03-23T14:46:44;95080.72;;;19.48;24.54
12624;BME280;6377;42.836;23.998;2024-03-23T14:49:14;95053.91;;;19.31;24.59
12624;BME280;6377;42.836;23.998;2024-03-23T14:51:42;95036.25;;;19.14;24.17
12624;BME280;6377;42.836;23.998;2024-03-23T14:54:09;95035.31;;;19.25;24.19
12624;BME280;6377;42.836;23.998;2024-03-23T14:56:35;94962.28;;;18.79;24.38
12624;BME280;6377;42.836;23.998;2024-03-23T14:59:04;95095.50;;;19.50;24.45
12624;BME280;6377;42.836;23.998;2024-03-23T15:01:30;95056.44;;;19.21;24.38
12624;BME280;6377;42.836;23.998;2024-03-23T15:03:57;94988.38;;;18.84;24.48
12624;BME280;6377;42.836;23.998;2024-03-23T15:06:23;94974.97;;;18.84;24.43
12624;BME280;6377;42.836;23.998;2024-03-23T15:08:50;94913.63;;;18.66;24.42
12624;BME280;6377;42.836;23.998;2024-03-23T15:11:16;94983.19;;;18.77;24.51
12624;BME280;6377;42.836;23.998;2024-03-23T15:13:44;94972.00;;;18.64;24.58
12624;BME280;6377;42.836;23.998;2024-03-23T15:16:16;95005.47;;;18.99;24.06
12624;BME280;6377;42.836;23.998;2024-03-23T15:18:48;95010.22;;;19.14;24.90
12624;BME280;6377;42.836;23.998;2024-03-23T15:21:14;95051.63;;;19.23;24.16
12624;BME280;6377;42.836;23.998;2024-03-23T15:23:47;94977.25;;;18.75;24.54
12624;BME280;6377;42.836;23.998;2024-03-23T15:26:13;95042.38;;;19.14;24.43
12624;BME280;6377;42.836;23.998;2024-03-23T15:28:41;94894.88;;;18.32;24.24
12624;BME280;6377;42.836;23.998;2024-03-23T15:31:21;95055.06;;;19.19;23.93
12624;BME280;6377;42.836;23.998;2024-03-23T15:33:48;94959.97;;;18.50;24.44
12624;BME280;6377;42.836;23.998;2024-03-23T15:36:14;95045.25;;;19.08;24.75
12624;BME280;6377;42.836;23.998;2024-03-23T15:38:41;95019.84;;;18.93;23.97
12624;BME280;6377;42.836;23.998;2024-03-23T15:41:08;95040.63;;;19.03;23.81
12624;BME280;6377;42.836;23.998;2024-03-23T15:43:35;95002.09;;;18.87;24.14
12624;BME280;6377;42.836;23.998;2024-03-23T15:46:03;95019.59;;;18.95;23.86
12624;BME280;6377;42.836;23.998;2024-03-23T15:48:32;95034.97;;;18.83;24.44
12624;BME280;6377;42.836;23.998;2024-03-23T15:51:01;95037.72;;;18.88;24.92
12624;BME280;6377;42.836;23.998;2024-03-23T15:53:28;95003.13;;;18.36;25.40
12624;BME280;6377;42.836;23.998;2024-03-23T15:55:54;95052.66;;;18.51;25.88
12624;BME280;6377;42.836;23.998;2024-03-23T15:58:21;95023.66;;;18.31;26.14
12624;BME280;6377;42.836;23.998;2024-03-23T16:00:54;94995.94;;;18.09;26.28
12624;BME280;6377;42.836;23.998;2024-03-23T16:03:21;95033.81;;;18.17;26.45
12624;BME280;6377;42.836;23.998;2024-03-23T16:05:51;95037.19;;;17.96;26.80
12624;BME280;6377;42.836;23.998;2024-03-23T16:08:18;95042.63;;;18.01;27.65
12624;BME280;6377;42.836;23.998;2024-03-23T16:10:43;95039.53;;;17.92;28.16
12624;BME280;6377;42.836;23.998;2024-03-23T16:13:10;95034.28;;;17.69;28.89
12624;BME280;6377;42.836;23.998;2024-03-23T16:15:36;95038.72;;;17.52;29.69
12624;BME280;6377;42.836;23.998;2024-03-23T16:18:03;95034.00;;;17.31;30.23
12624;BME280;6377;42.836;23.998;2024-03-23T16:20:29;95039.81;;;17.16;30.56
12624;BME280;6377;42.836;23.998;2024-03-23T16:23:00;95037.72;;;16.95;30.98
12624;BME280;6377;42.836;23.998;2024-03-23T16:25:26;95031.47;;;16.90;31.30
12624;BME280;6377;42.836;23.998;2024-03-23T16:27:53;95018.22;;;16.60;31.73
12624;BME280;6377;42.836;23.998;2024-03-23T16:30:18;95023.03;;;16.40;32.17
12624;BME280;6377;42.836;23.998;2024-03-23T16:32:45;95048.56;;;16.36;32.50
12624;BME280;6377;42.836;23.998;2024-03-23T16:35:12;95025.63;;;16.05;32.80
12624;BME280;6377;42.836;23.998;2024-03-23T16:37:39;95050.38;;;16.23;32.91
12624;BME280;6377;42.836;23.998;2024-03-23T16:40:08;95034.78;;;16.09;33.14
12624;BME280;6377;42.836;23.998;2024-03-23T16:42:35;95057.09;;;16.14;33.54
12624;BME280;6377;42.836;23.998;2024-03-23T16:45:01;95048.25;;;16.02;33.56
12624;BME280;6377;42.836;23.998;2024-03-23T16:47:29;95041.91;;;15.85;34.13
12624;BME280;6377;42.836;23.998;2024-03-23T16:49:54;95047.63;;;15.70;34.42
12624;BME280;6377;42.836;23.998;2024-03-23T16:52:22;94998.22;;;15.20;34.88
12624;BME280;6377;42.836;23.998;2024-03-23T16:54:47;95059.91;;;15.35;34.45
12624;BME280;6377;42.836;23.998;2024-03-23T16:57:16;95057.34;;;15.29;34.87
12624;BME280;6377;42.836;23.998;2024-03-23T16:59:41;95047.34;;;15.24;35.01
12624;BME280;6377;42.836;23.998;2024-03-23T17:02:08;95050.75;;;15.31;35.18
12624;BME280;6377;42.836;23.998;2024-03-23T17:04:34;95062.00;;;15.33;35.22
12624;BME280;6377;42.836;23.998;2024-03-23T17:07:01;95029.22;;;15.14;35.40
12624;BME280;6377;42.836;23.998;2024-03-23T17:09:26;95041.94;;;15.12;35.64
12624;BME280;6377;42.836;23.998;2024-03-23T17:11:54;95015.53;;;14.93;35.52
12624;BME280;6377;42.836;23.998;2024-03-23T17:14:21;95053.72;;;15.05;35.50
12624;BME280;6377;42.836;23.998;2024-03-23T17:16:49;95054.59;;;14.99;35.85
12624;BME280;6377;42.836;23.998;2024-03-23T17:19:16;94993.28;;;14.63;35.94
12624;BME280;6377;42.836;23.998;2024-03-23T17:21:43;95065.19;;;15.05;35.88
12624;BME280;6377;42.836;23.998;2024-03-23T17:24:09;95062.25;;;14.89;35.94
12624;BME280;6377;42.836;23.998;2024-03-23T17:26:37;95059.97;;;14.92;36.35
12624;BME280;6377;42.836;23.998;2024-03-23T17:29:02;95060.75;;;14.75;36.26
12624;BME280;6377;42.836;23.998;2024-03-23T17:31:31;95065.69;;;14.71;36.58
12624;BME280;6377;42.836;23.998;2024-03-23T17:33:57;95056.97;;;14.64;36.82
12624;BME280;6377;42.836;23.998;2024-03-23T17:36:23;95055.22;;;14.51;37.22
12624;BME280;6377;42.836;23.998;2024-03-23T17:38:53;95044.66;;;14.38;36.58
12624;BME280;6377;42.836;23.998;2024-03-23T17:41:20;95056.25;;;14.50;36.56
12624;BME280;6377;42.836;23.998;2024-03-23T17:43:46;95056.44;;;14.55;36.58
12624;BME280;6377;42.836;23.998;2024-03-23T17:46:13;95054.78;;;14.54;36.44
12624;BME280;6377;42.836;23.998;2024-03-23T17:48:40;95054.78;;;14.54;36.07
12624;BME280;6377;42.836;23.998;2024-03-23T17:51:07;95057.41;;;14.61;36.89
12624;BME280;6377;42.836;23.998;2024-03-23T17:53:38;95058.13;;;14.50;36.98
12624;BME280;6377;42.836;23.998;2024-03-23T17:56:05;94980.00;;;13.88;36.46
12624;BME280;6377;42.836;23.998;2024-03-23T17:58:31;95063.88;;;14.47;36.69
12624;BME280;6377;42.836;23.998;2024-03-23T18:00:58;95055.88;;;14.47;36.73
12624;BME280;6377;42.836;23.998;2024-03-23T18:03:24;95051.31;;;14.23;37.03
12624;BME280;6377;42.836;23.998;2024-03-23T18:05:52;95061.88;;;14.36;37.44
12624;BME280;6377;42.836;23.998;2024-03-23T18:08:18;95049.03;;;14.33;37.68
12624;BME280;6377;42.836;23.998;2024-03-23T18:10:44;95054.13;;;14.34;37.62
12624;BME280;6377;42.836;23.998;2024-03-23T18:13:11;95060.56;;;14.20;38.09
12624;BME280;6377;42.836;23.998;2024-03-23T18:15:38;94996.69;;;13.64;38.13
12624;BME280;6377;42.836;23.998;2024-03-23T18:18:04;95056.84;;;13.90;38.91
12624;BME280;6377;42.836;23.998;2024-03-23T18:20:31;95053.63;;;13.81;38.50
12624;BME280;6377;42.836;23.998;2024-03-23T18:22:58;95057.72;;;13.77;39.62
12624;BME280;6377;42.836;23.998;2024-03-23T18:25:25;95058.66;;;13.58;39.28
12624;BME280;6377;42.836;23.998;2024-03-23T18:27:50;95054.13;;;13.65;41.66
12624;BME280;6377;42.836;23.998;2024-03-23T18:30:18;95052.13;;;13.54;40.13
12624;BME280;6377;42.836;23.998;2024-03-23T18:32:44;95033.63;;;13.34;40.17
12624;BME280;6377;42.836;23.998;2024-03-23T18:35:11;95058.28;;;13.48;40.28
12624;BME280;6377;42.836;23.998;2024-03-23T18:37:37;95045.72;;;13.24;40.58
12624;BME280;6377;42.836;23.998;2024-03-23T18:40:06;95052.28;;;13.15;41.18
12624;BME280;6377;42.836;23.998;2024-03-23T18:42:32;95052.09;;;13.03;40.85
12624;BME280;6377;42.836;23.998;2024-03-23T18:44:59;95053.13;;;13.09;40.77
12624;BME280;6377;42.836;23.998;2024-03-23T18:47:25;95025.56;;;12.90;40.12
12624;BME280;6377;42.836;23.998;2024-03-23T18:49:51;95044.13;;;13.03;40.17
12624;BME280;6377;42.836;23.998;2024-03-23T18:52:18;95045.34;;;13.14;40.69
12624;BME280;6377;42.836;23.998;2024-03-23T18:54:46;95044.38;;;12.75;41.21
12624;BME280;6377;42.836;23.998;2024-03-23T18:57:13;95050.91;;;12.73;41.12
12624;BME280;6377;42.836;23.998;2024-03-23T18:59:40;95053.53;;;12.86;41.34
12624;BME280;6377;42.836;23.998;2024-03-23T19:02:06;95046.81;;;12.77;41.89
12624;BME280;6377;42.836;23.998;2024-03-23T19:04:33;95051.16;;;12.65;42.03
12624;BME280;6377;42.836;23.998;2024-03-23T19:06:58;95041.34;;;12.46;42.58
12624;BME280;6377;42.836;23.998;2024-03-23T19:09:25;95036.06;;;12.26;42.74
12624;BME280;6377;42.836;23.998;2024-03-23T19:11:52;95020.78;;;12.15;42.90
12624;BME280;6377;42.836;23.998;2024-03-23T19:14:21;95035.03;;;12.20;42.87
12624;BME280;6377;42.836;23.998;2024-03-23T19:16:47;95035.03;;;12.14;42.71
12624;BME280;6377;42.836;23.998;2024-03-23T19:19:14;95032.78;;;12.17;42.75
12624;BME280;6377;42.836;23.998;2024-03-23T19:21:40;95035.66;;;12.09;43.34
12624;BME280;6377;42.836;23.998;2024-03-23T19:24:07;95026.06;;;12.08;43.74
12624;BME280;6377;42.836;23.998;2024-03-23T19:26:33;94976.09;;;11.79;43.39
12624;BME280;6377;42.836;23.998;2024-03-23T19:29:00;95027.91;;;12.21;43.95
12624;BME280;6377;42.836;23.998;2024-03-23T19:31:27;95027.47;;;12.30;43.91
12624;BME280;6377;42.836;23.998;2024-03-23T19:33:54;95014.63;;;12.27;44.47
12624;BME280;6377;42.836;23.998;2024-03-23T19:36:20;95025.03;;;12.42;44.03
12624;BME280;6377;42.836;23.998;2024-03-23T19:38:47;95032.16;;;12.48;45.38
12624;BME280;6377;42.836;23.998;2024-03-23T19:41:13;95015.03;;;12.24;43.56
12624;BME280;6377;42.836;23.998;2024-03-23T19:43:39;95036.25;;;12.24;43.83
12624;BME280;6377;42.836;23.998;2024-03-23T19:46:05;95027.69;;;12.22;43.80
12624;BME280;6377;42.836;23.998;2024-03-23T19:48:33;95001.41;;;12.14;44.46
12624;BME280;6377;42.836;23.998;2024-03-23T19:50:59;94960.63;;;12.02;44.76
12624;BME280;6377;42.836;23.998;2024-03-23T19:53:27;95022.00;;;12.32;44.18
12624;BME280;6377;42.836;23.998;2024-03-23T19:55:54;95006.50;;;12.29;45.86
12624;BME280;6377;42.836;23.998;2024-03-23T19:58:20;95010.78;;;12.23;44.31
12624;BME280;6377;42.836;23.998;2024-03-23T20:00:47;95001.59;;;12.32;43.93
12624;BME280;6377;42.836;23.998;2024-03-23T20:03:13;95007.69;;;12.40;44.83
12624;BME280;6377;42.836;23.998;2024-03-23T20:05:42;94997.09;;;12.40;45.54
12624;BME280;6377;42.836;23.998;2024-03-23T20:08:07;94944.69;;;12.15;45.65
12624;BME280;6377;42.836;23.998;2024-03-23T20:10:34;94996.44;;;12.51;46.04
12624;BME280;6377;42.836;23.998;2024-03-23T20:13:00;94983.63;;;12.41;46.28
12624;BME280;6377;42.836;23.998;2024-03-23T20:15:27;94966.31;;;12.32;44.56
12624;BME280;6377;42.836;23.998;2024-03-23T20:17:54;95000.38;;;12.28;44.70
12624;BME280;6377;42.836;23.998;2024-03-23T20:20:21;95001.19;;;12.29;46.92
12624;BME280;6377;42.836;23.998;2024-03-23T20:22:48;95003.22;;;12.33;45.15
12624;BME280;6377;42.836;23.998;2024-03-23T20:25:15;94992.03;;;12.12;45.37
12624;BME280;6377;42.836;23.998;2024-03-23T20:27:40;95009.13;;;12.22;47.16
12624;BME280;6377;42.836;23.998;2024-03-23T20:30:08;95005.06;;;12.00;45.75
12624;BME280;6377;42.836;23.998;2024-03-23T20:32:35;94963.25;;;11.83;46.43
12624;BME280;6377;42.836;23.998;2024-03-23T20:35:02;95000.38;;;12.02;46.59
12624;BME280;6377;42.836;23.998;2024-03-23T20:37:28;94995.06;;;11.96;46.41
12624;BME280;6377;42.836;23.998;2024-03-23T20:39:57;94979.91;;;11.63;46.40
12624;BME280;6377;42.836;23.998;2024-03-23T20:42:22;95004.97;;;11.67;46.72
12624;BME280;6377;42.836;23.998;2024-03-23T20:44:49;95000.88;;;11.58;47.78
12624;BME280;6377;42.836;23.998;2024-03-23T20:47:17;94982.72;;;11.49;47.79
12624;BME280;6377;42.836;23.998;2024-03-23T20:49:44;95003.75;;;11.63;48.31
12624;BME280;6377;42.836;23.998;2024-03-23T20:52:10;94916.25;;;10.98;47.65
12624;BME280;6377;42.836;23.998;2024-03-23T20:54:37;94996.00;;;11.55;47.60
12624;BME280;6377;42.836;23.998;2024-03-23T20:57:04;94800.25;;;10.34;47.68
12624;BME280;6377;42.836;23.998;2024-03-23T20:59:33;94904.34;;;10.81;45.91
12624;BME280;6377;42.836;23.998;2024-03-23T21:01:58;94909.94;;;11.05;47.28
12624;BME280;6377;42.836;23.998;2024-03-23T21:04:25;94943.34;;;11.19;43.86
12624;BME280;6377;42.836;23.998;2024-03-23T21:06:51;94959.91;;;11.35;44.60
12624;BME280;6377;42.836;23.998;2024-03-23T21:09:18;94966.44;;;11.39;43.67
12624;BME280;6377;42.836;23.998;2024-03-23T21:11:44;94975.63;;;11.56;43.35
12624;BME280;6377;42.836;23.998;2024-03-23T21:14:12;94941.53;;;11.33;44.15
12624;BME280;6377;42.836;23.998;2024-03-23T21:16:38;94962.84;;;11.72;42.94
12624;BME280;6377;42.836;23.998;2024-03-23T21:19:06;94959.75;;;11.69;42.38
12624;BME280;6377;42.836;23.998;2024-03-23T21:21:33;94960.59;;;11.76;41.73
12624;BME280;6377;42.836;23.998;2024-03-23T21:23:59;94973.03;;;11.95;41.48
12624;BME280;6377;42.836;23.998;2024-03-23T21:26:25;94962.84;;;12.05;41.24
12624;BME280;6377;42.836;23.998;2024-03-23T21:29:17;94920.25;;;11.80;41.34
12624;BME280;6377;42.836;23.998;2024-03-23T21:31:48;94924.34;;;11.76;40.71
12624;BME280;6377;42.836;23.998;2024-03-23T21:34:15;94883.38;;;11.72;40.29
12624;BME280;6377;42.836;23.998;2024-03-23T21:36:42;94965.91;;;12.28;40.25
12624;BME280;6377;42.836;23.998;2024-03-23T21:39:08;94968.94;;;12.39;40.80
12624;BME280;6377;42.836;23.998;2024-03-23T21:41:35;94960.59;;;12.42;40.57
12624;BME280;6377;42.836;23.998;2024-03-23T21:44:04;94968.09;;;12.45;40.24
12624;BME280;6377;42.836;23.998;2024-03-23T21:46:32;94911.25;;;12.14;40.37
12624;BME280;6377;42.836;23.998;2024-03-23T21:48:58;94957.50;;;12.45;40.65
12624;BME280;6377;42.836;23.998;2024-03-23T21:51:27;94923.47;;;12.15;40.61
12624;BME280;6377;42.836;23.998;2024-03-23T21:53:53;94962.22;;;12.23;40.26
12624;BME280;6377;42.836;23.998;2024-03-23T21:56:31;94912.91;;;11.96;40.88
12624;BME280;6377;42.836;23.998;2024-03-23T21:58:57;94866.25;;;11.75;39.99
12624;BME280;6377;42.836;23.998;2024-03-23T22:01:27;94958.13;;;12.33;39.95
12624;BME280;6377;42.836;23.998;2024-03-23T22:03:54;94941.44;;;12.20;39.58
12624;BME280;6377;42.836;23.998;2024-03-23T22:06:20;94901.69;;;11.80;39.38
12624;BME280;6377;42.836;23.998;2024-03-23T22:08:48;94953.06;;;12.32;39.55
12624;BME280;6377;42.836;23.998;2024-03-23T22:11:15;94936.53;;;12.23;38.88
12624;BME280;6377;42.836;23.998;2024-03-23T22:13:41;94919.00;;;12.16;38.67
12624;BME280;6377;42.836;23.998;2024-03-23T22:16:09;94912.88;;;12.28;39.07
12624;BME280;6377;42.836;23.998;2024-03-23T22:18:35;94947.69;;;12.45;38.49
12624;BME280;6377;42.836;23.998;2024-03-23T22:21:04;94951.34;;;12.57;38.48
12624;BME280;6377;42.836;23.998;2024-03-23T22:23:30;94956.88;;;12.56;37.78
12624;BME280;6377;42.836;23.998;2024-03-23T22:25:57;94911.63;;;12.38;37.73
12624;BME280;6377;42.836;23.998;2024-03-23T22:28:26;94950.69;;;12.75;38.26
12624;BME280;6377;42.836;23.998;2024-03-23T22:30:54;94954.75;;;12.77;38.27
12624;BME280;6377;42.836;23.998;2024-03-23T22:33:21;94940.91;;;12.75;37.63
12624;BME280;6377;42.836;23.998;2024-03-23T22:35:48;94938.44;;;12.80;37.58